createdAt,value
2022-12-13T00:01:26.797Z,-1.76
2022-12-13T00:03:54.489Z,-1.73
2022-12-13T00:06:21.091Z,-1.68
2022-12-13T00:08:47.467Z,-1.67
2022-12-13T00:11:14.406Z,-1.68
2022-12-13T00:13:41.762Z,-1.77
2022-12-13T00:16:10.149Z,-1.79
2022-12-13T00:18:36.587Z,-1.77
2022-12-13T00:21:07.019Z,-1.73
2022-12-13T00:23:33.767Z,-1.76
2022-12-13T00:26:03.972Z,-1.74
2022-12-13T00:28:30.579Z,-1.71
2022-12-13T00:31:04.350Z,-1.66
2022-12-13T00:33:40.157Z,-1.59
2022-12-13T00:36:07.774Z,-1.59
2022-12-13T00:38:35.218Z,-1.59
2022-12-13T00:41:15.382Z,-1.58
2022-12-13T00:43:42.232Z,-1.59
2022-12-13T00:46:13.477Z,-1.56
2022-12-13T00:48:39.953Z,-1.62
2022-12-13T00:51:07.873Z,-1.65
2022-12-13T00:53:34.357Z,-1.67
2022-12-13T00:56:00.727Z,-1.71
2022-12-13T00:58:27.166Z,-1.70
2022-12-13T01:00:53.573Z,-1.68
2022-12-13T01:03:20.698Z,-1.66
2022-12-13T01:06:14.476Z,-1.66
2022-12-13T01:08:34.106Z,-1.70
2022-12-13T01:11:00.498Z,-1.71
2022-12-13T01:13:33.363Z,-1.72
2022-12-13T01:16:01.651Z,-1.70
2022-12-13T01:18:28.027Z,-1.74
2022-12-13T01:20:59.079Z,-1.75
2022-12-13T01:23:26.221Z,-1.71
2022-12-13T01:25:52.657Z,-1.63
2022-12-13T01:28:19.613Z,-1.68
2022-12-13T01:30:53.193Z,-1.67
2022-12-13T01:33:19.590Z,-1.62
2022-12-13T01:35:45.959Z,-1.58
2022-12-13T01:38:15.634Z,-1.57
2022-12-13T01:40:43.901Z,-1.61
2022-12-13T01:43:14.271Z,-1.58
2022-12-13T01:45:41.296Z,-1.55
2022-12-13T01:48:10.258Z,-1.52
2022-12-13T01:50:38.935Z,-1.48
2022-12-13T01:53:07.058Z,-1.43
2022-12-13T01:55:41.551Z,-1.44
2022-12-13T01:58:08.541Z,-1.44
2022-12-13T02:00:35.997Z,-1.41
2022-12-13T02:03:02.779Z,-1.39
2022-12-13T02:05:41.308Z,-1.38
2022-12-13T02:08:10.283Z,-1.38
2022-12-13T02:10:36.657Z,-1.38
2022-12-13T02:13:03.264Z,-1.35
2022-12-13T02:15:36.623Z,-1.44
2022-12-13T02:18:21.943Z,-1.47
2022-12-13T02:21:02.093Z,-1.46
2022-12-13T02:23:41.361Z,-1.45
2022-12-13T02:26:10.552Z,-1.47
2022-12-13T02:28:36.919Z,-1.54
2022-12-13T02:31:09.647Z,-1.54
2022-12-13T02:33:40.321Z,-1.53
2022-12-13T02:36:27.018Z,-1.51
2022-12-13T02:38:59.836Z,-1.50
2022-12-13T02:41:38.400Z,-1.51
2022-12-13T02:44:22.139Z,-1.60
2022-12-13T02:47:02.730Z,-1.57
2022-12-13T02:49:33.606Z,-1.51
2022-12-13T02:52:00.515Z,-1.58
2022-12-13T02:54:26.982Z,-1.66
2022-12-13T02:56:54.577Z,-1.72
2022-12-13T02:59:22.015Z,-1.71
2022-12-13T03:01:51.334Z,-1.67
2022-12-13T03:05:12.174Z,-1.63
2022-12-13T03:08:01.940Z,-1.63
2022-12-13T03:10:40.562Z,-1.71
2022-12-13T03:13:27.397Z,-1.79
2022-12-13T03:15:57.894Z,-1.76
2022-12-13T03:18:26.435Z,-1.69
2022-12-13T03:21:13.152Z,-1.67
2022-12-13T03:23:40.278Z,-1.68
2022-12-13T03:26:09.928Z,-1.75
2022-12-13T03:28:37.018Z,-1.76
2022-12-13T03:31:03.571Z,-1.71
2022-12-13T03:33:30.038Z,-1.68
2022-12-13T03:35:56.993Z,-1.69
2022-12-13T03:38:23.657Z,-1.69
2022-12-13T03:40:55.712Z,-1.67
2022-12-13T03:43:23.122Z,-1.66
2022-12-13T03:45:50.474Z,-1.70
2022-12-13T03:48:22.339Z,-1.69
2022-12-13T03:50:50.379Z,-1.74
2022-12-13T03:53:23.043Z,-1.77
2022-12-13T03:56:00.938Z,-1.80
2022-12-13T03:58:36.568Z,-1.88
2022-12-13T04:01:07.575Z,-1.98
2022-12-13T04:03:34.493Z,-2.08
2022-12-13T04:06:00.872Z,-2.06
2022-12-13T04:08:27.299Z,-2.02
2022-12-13T04:10:53.711Z,-1.98
2022-12-13T04:13:35.472Z,-1.94
2022-12-13T04:16:02.679Z,-1.96
2022-12-13T04:18:29.272Z,-2.03
2022-12-13T04:20:55.702Z,-2.02
2022-12-13T04:23:22.089Z,-2.08
2022-12-13T04:25:48.466Z,-2.07
2022-12-13T04:28:22.830Z,-2.12
2022-12-13T04:30:53.517Z,-2.21
2022-12-13T04:33:21.223Z,-2.23
2022-12-13T04:35:47.900Z,-2.32
2022-12-13T04:38:14.520Z,-2.33
2022-12-13T04:40:40.938Z,-2.35
2022-12-13T04:43:07.301Z,-2.40
2022-12-13T04:45:33.939Z,-2.50
2022-12-13T04:48:00.462Z,-2.57
2022-12-13T04:50:26.832Z,-2.51
2022-12-13T04:52:53.289Z,-2.55
2022-12-13T04:55:19.677Z,-2.55
2022-12-13T04:57:46.040Z,-2.62
2022-12-13T05:00:15.861Z,-2.59
2022-12-13T05:02:42.415Z,-2.61
2022-12-13T05:05:09.516Z,-2.67
2022-12-13T05:07:35.935Z,-2.70
2022-12-13T05:10:09.040Z,-2.71
2022-12-13T05:12:35.423Z,-2.68
2022-12-13T05:15:01.853Z,-2.67
2022-12-13T05:17:28.231Z,-2.67
2022-12-13T05:19:54.663Z,-2.64
2022-12-13T05:22:21.420Z,-2.63
2022-12-13T05:24:48.422Z,-2.71
2022-12-13T05:27:24.975Z,-2.75
2022-12-13T05:30:02.825Z,-2.81
2022-12-13T05:32:43.330Z,-2.82
2022-12-13T05:35:23.105Z,-2.81
2022-12-13T05:37:54.341Z,-2.86
2022-12-13T05:40:21.944Z,-2.92
2022-12-13T05:42:48.326Z,-2.98
2022-12-13T05:45:16.238Z,-3.01
2022-12-13T05:47:42.975Z,-3.02
2022-12-13T05:50:09.639Z,-3.15
2022-12-13T05:52:36.150Z,-3.24
2022-12-13T05:55:02.636Z,-3.26
2022-12-13T05:57:29.538Z,-3.30
2022-12-13T05:59:56.108Z,-3.36
2022-12-13T06:02:23.039Z,-3.55
2022-12-13T06:04:49.523Z,-3.80
2022-12-13T06:07:15.949Z,-3.86
2022-12-13T06:09:42.774Z,-3.91
2022-12-13T06:12:31.411Z,-3.93
2022-12-13T06:15:01.369Z,-3.93
2022-12-13T06:17:35.280Z,-3.99
2022-12-13T06:20:01.892Z,-4.09
2022-12-13T06:22:28.276Z,-4.20
2022-12-13T06:24:55.033Z,-4.31
2022-12-13T06:27:21.829Z,-4.42
2022-12-13T06:29:48.261Z,-4.48
2022-12-13T06:32:14.905Z,-4.56
2022-12-13T06:34:41.273Z,-4.60
2022-12-13T06:37:10.660Z,-4.65
2022-12-13T06:39:37.052Z,-4.72
2022-12-13T06:42:06.266Z,-4.80
2022-12-13T06:44:33.221Z,-4.90
2022-12-13T06:47:11.129Z,-4.97
2022-12-13T06:49:39.309Z,-5.10
2022-12-13T06:52:05.928Z,-5.19
2022-12-13T06:54:33.056Z,-5.28
2022-12-13T06:56:59.797Z,-5.34
2022-12-13T06:59:26.214Z,-5.36
2022-12-13T07:01:52.659Z,-5.44
2022-12-13T07:04:28.989Z,-5.55
2022-12-13T07:07:01.753Z,-5.60
2022-12-13T07:09:29.589Z,-5.67
2022-12-13T07:11:55.953Z,-5.71
2022-12-13T07:14:22.318Z,-5.68
2022-12-13T07:16:48.730Z,-5.72
2022-12-13T07:19:23.902Z,-5.78
2022-12-13T07:21:51.373Z,-5.78
2022-12-13T07:24:17.833Z,-5.82
2022-12-13T07:26:44.218Z,-5.93
2022-12-13T07:29:10.620Z,-6.00
2022-12-13T07:31:37.741Z,-6.03
2022-12-13T07:34:04.282Z,-6.04
2022-12-13T07:36:30.689Z,-6.06
2022-12-13T07:38:57.708Z,-6.05
2022-12-13T07:41:25.136Z,-6.06
2022-12-13T07:43:55.608Z,-6.07
2022-12-13T07:46:33.018Z,-6.11
2022-12-13T07:49:03.292Z,-6.20
2022-12-13T07:51:29.738Z,-6.25
2022-12-13T07:53:56.263Z,-6.30
2022-12-13T07:56:22.638Z,-6.39
2022-12-13T07:58:49.160Z,-6.45
2022-12-13T08:01:15.556Z,-6.50
2022-12-13T08:03:42.070Z,-6.50
2022-12-13T08:06:10.088Z,-6.50
2022-12-13T08:08:37.639Z,-6.50
2022-12-13T08:11:05.639Z,-6.53
2022-12-13T08:13:32.306Z,-6.60
2022-12-13T08:16:02.478Z,-6.63
2022-12-13T08:18:29.333Z,-6.64
2022-12-13T08:20:59.623Z,-6.63
2022-12-13T08:23:26.233Z,-6.65
2022-12-13T08:25:53.669Z,-6.66
2022-12-13T08:28:20.636Z,-6.72
2022-12-13T08:30:47.786Z,-6.79
2022-12-13T08:33:14.161Z,-6.84
2022-12-13T08:35:40.589Z,-6.87
2022-12-13T08:38:07.743Z,-6.86
2022-12-13T08:40:34.979Z,-6.89
2022-12-13T08:43:01.682Z,-6.89
2022-12-13T08:45:28.174Z,-6.93
2022-12-13T08:47:57.105Z,-6.98
2022-12-13T08:50:23.486Z,-6.98
2022-12-13T08:52:51.117Z,-7.02
2022-12-13T08:55:21.111Z,-7.05
2022-12-13T08:57:57.790Z,-7.11
2022-12-13T09:00:27.897Z,-7.14
2022-12-13T09:02:57.278Z,-7.12
2022-12-13T09:05:33.272Z,-7.13
2022-12-13T09:08:02.918Z,-7.13
2022-12-13T09:10:29.917Z,-7.10
2022-12-13T09:13:11.872Z,-7.07
2022-12-13T09:15:51.717Z,-7.09
2022-12-13T09:18:24.038Z,-7.10
2022-12-13T09:20:52.114Z,-7.08
2022-12-13T09:23:23.842Z,-7.02
2022-12-13T09:25:55.040Z,-7.01
2022-12-13T09:28:21.720Z,-7.00
2022-12-13T09:30:48.102Z,-6.99
2022-12-13T09:33:28.631Z,-7.00
2022-12-13T09:35:57.386Z,-6.96
2022-12-13T09:38:23.841Z,-6.94
2022-12-13T09:40:58.381Z,-6.91
2022-12-13T09:43:32.064Z,-6.88
2022-12-13T09:46:02.201Z,-6.84
2022-12-13T09:48:29.410Z,-6.80
2022-12-13T09:51:15.983Z,-6.76
2022-12-13T09:53:49.522Z,-6.73
2022-12-13T09:56:18.451Z,-6.68
2022-12-13T09:58:47.943Z,-6.67
2022-12-13T10:01:22.834Z,-6.65
2022-12-13T10:03:52.533Z,-6.60
2022-12-13T10:06:22.488Z,-6.53
2022-12-13T10:08:58.966Z,-6.46
2022-12-13T10:11:31.477Z,-6.40
2022-12-13T10:14:04.127Z,-6.29
2022-12-13T10:16:35.930Z,-6.21
2022-12-13T10:19:29.251Z,-6.08
2022-12-13T10:22:01.423Z,-5.96
2022-12-13T10:24:36.335Z,-5.86
2022-12-13T10:27:14.380Z,-5.76
2022-12-13T10:29:57.024Z,-5.68
2022-12-13T10:32:23.509Z,-5.61
2022-12-13T10:34:50.043Z,-5.53
2022-12-13T10:37:29.423Z,-5.44
2022-12-13T10:39:56.033Z,-5.33
2022-12-13T10:42:25.848Z,-5.22
2022-12-13T10:45:15.407Z,-5.13
2022-12-13T10:47:43.150Z,-5.02
2022-12-13T10:50:21.083Z,-4.90
2022-12-13T10:52:48.149Z,-4.79
2022-12-13T10:55:33.536Z,-4.68
2022-12-13T10:58:07.198Z,-4.50
2022-12-13T11:00:35.740Z,-4.33
2022-12-13T11:03:02.704Z,-4.21
2022-12-13T11:05:30.933Z,-4.14
2022-12-13T11:08:11.589Z,-4.03
2022-12-13T11:10:38.138Z,-3.92
2022-12-13T11:13:06.507Z,-3.84
2022-12-13T11:15:34.661Z,-3.76
2022-12-13T11:18:08.576Z,-3.68
2022-12-13T11:20:36.681Z,-3.61
2022-12-13T11:23:07.614Z,-3.53
2022-12-13T11:25:38.745Z,-3.47
2022-12-13T11:28:26.587Z,-3.40
2022-12-13T11:31:09.057Z,-3.34
2022-12-13T11:33:56.152Z,-3.28
2022-12-13T11:36:48.799Z,-3.21
2022-12-13T11:39:33.894Z,-3.14
2022-12-13T11:42:19.265Z,-3.08
2022-12-13T11:44:56.111Z,-3.06
2022-12-13T11:47:29.051Z,-3.01
2022-12-13T11:49:56.930Z,-2.93
2022-12-13T11:52:35.351Z,-2.87
2022-12-13T11:55:05.349Z,-2.83
2022-12-13T11:57:34.843Z,-2.77
2022-12-13T12:00:17.427Z,-2.75
2022-12-13T12:03:07.386Z,-2.76
2022-12-13T12:05:36.275Z,-2.72
2022-12-13T12:08:40.345Z,-2.67
2022-12-13T12:11:21.140Z,-2.65
2022-12-13T12:13:53.998Z,-2.63
2022-12-13T12:16:28.621Z,-2.64
2022-12-13T12:18:55.200Z,-2.64
2022-12-13T12:22:04.839Z,-2.63
2022-12-13T12:24:23.327Z,-2.64
2022-12-13T12:26:49.707Z,-2.63
2022-12-13T12:29:48.075Z,-2.58
2022-12-13T12:32:29.854Z,-2.56
2022-12-13T12:35:04.734Z,-2.52
2022-12-13T12:37:57.256Z,-2.52
2022-12-13T12:40:52.186Z,-2.47
2022-12-13T12:43:26.409Z,-2.43
2022-12-13T12:46:07.591Z,-2.43
2022-12-13T12:49:01.339Z,-2.41
2022-12-13T12:51:29.036Z,-2.40
2022-12-13T12:54:01.600Z,-2.41
2022-12-13T12:56:30.976Z,-2.36
2022-12-13T12:59:06.663Z,-2.28
2022-12-13T13:01:44.512Z,-2.24
2022-12-13T13:04:12.938Z,-2.21
2022-12-13T13:06:51.337Z,-2.13
2022-12-13T13:09:24.473Z,-2.10
2022-12-13T13:11:51.445Z,-2.07
2022-12-13T13:14:27.083Z,-2.07
2022-12-13T13:16:53.961Z,-2.05
2022-12-13T13:19:25.766Z,-1.99
2022-12-13T13:21:54.148Z,-1.94
2022-12-13T13:24:22.111Z,-1.95
2022-12-13T13:26:48.556Z,-1.93
2022-12-13T13:29:26.991Z,-1.96
2022-12-13T13:32:28.983Z,-2.03
2022-12-13T13:35:16.320Z,-2.11
2022-12-13T13:37:46.989Z,-2.25
2022-12-13T13:40:13.342Z,-2.40
2022-12-13T13:43:10.005Z,-2.48
2022-12-13T13:45:51.833Z,-2.56
2022-12-13T13:48:37.079Z,-2.65
2022-12-13T13:51:22.495Z,-2.77
2022-12-13T13:53:51.860Z,-2.91
2022-12-13T13:56:27.629Z,-3.01
2022-12-13T13:59:03.187Z,-3.09
2022-12-13T14:01:45.820Z,-3.14
2022-12-13T14:04:34.154Z,-3.19
2022-12-13T14:07:13.846Z,-3.21
2022-12-13T14:09:47.120Z,-3.22
2022-12-13T14:12:16.274Z,-3.23
2022-12-13T14:14:51.881Z,-3.31
2022-12-13T14:17:50.246Z,-3.38
2022-12-13T14:20:34.825Z,-3.47
2022-12-13T14:23:10.289Z,-3.55
2022-12-13T14:25:58.476Z,-3.66
2022-12-13T14:28:28.506Z,-3.76
2022-12-13T14:30:57.714Z,-3.84
2022-12-13T14:33:25.625Z,-3.93
2022-12-13T14:35:56.843Z,-3.99
2022-12-13T14:38:25.641Z,-4.06
2022-12-13T14:40:54.423Z,-4.14
2022-12-13T14:43:24.516Z,-4.20
2022-12-13T14:45:58.570Z,-4.28
2022-12-13T14:48:27.896Z,-4.36
2022-12-13T14:50:55.448Z,-4.46
2022-12-13T14:53:25.595Z,-4.49
2022-12-13T14:56:27.557Z,-4.53
2022-12-13T14:58:55.393Z,-4.52
2022-12-13T15:01:29.988Z,-4.55
2022-12-13T15:04:15.179Z,-4.65
2022-12-13T15:06:41.709Z,-4.73
2022-12-13T15:09:15.685Z,-4.82
2022-12-13T15:11:43.903Z,-4.86
2022-12-13T15:14:15.778Z,-4.84
2022-12-13T15:16:51.548Z,-4.86
2022-12-13T15:19:30.281Z,-4.88
2022-12-13T15:22:07.895Z,-4.95
2022-12-13T15:24:36.580Z,-4.96
2022-12-13T15:27:03.934Z,-4.88
2022-12-13T15:29:31.921Z,-4.84
2022-12-13T15:31:58.468Z,-4.82
2022-12-13T15:34:28.789Z,-4.83
2022-12-13T15:36:57.749Z,-4.82
2022-12-13T15:39:25.056Z,-4.82
2022-12-13T15:41:51.680Z,-4.84
2022-12-13T15:44:20.546Z,-4.88
2022-12-13T15:46:48.779Z,-4.98
2022-12-13T15:49:33.340Z,-5.04
2022-12-13T15:52:01.974Z,-5.13
2022-12-13T15:54:28.847Z,-5.19
2022-12-13T15:57:15.089Z,-5.27
2022-12-13T15:59:42.494Z,-5.38
2022-12-13T16:02:14.734Z,-5.42
2022-12-13T16:04:41.199Z,-5.48
2022-12-13T16:07:20.170Z,-5.51
2022-12-13T16:09:48.221Z,-5.58
2022-12-13T16:12:21.383Z,-5.62
2022-12-13T16:14:49.675Z,-5.65
2022-12-13T16:17:27.037Z,-5.69
2022-12-13T16:19:54.313Z,-5.70
2022-12-13T16:22:23.850Z,-5.72
2022-12-13T16:24:53.283Z,-5.67
2022-12-13T16:27:20.087Z,-5.64
2022-12-13T16:29:46.512Z,-5.65
2022-12-13T16:32:13.088Z,-5.67
2022-12-13T16:34:39.820Z,-5.68
2022-12-13T16:37:08.492Z,-5.64
2022-12-13T16:39:52.252Z,-5.65
2022-12-13T16:42:18.838Z,-5.64
2022-12-13T16:44:47.238Z,-5.62
2022-12-13T16:47:22.247Z,-5.61
2022-12-13T16:49:56.574Z,-5.55
2022-12-13T16:52:23.134Z,-5.56
2022-12-13T16:54:50.444Z,-5.67
2022-12-13T16:57:16.819Z,-5.71
2022-12-13T16:59:43.208Z,-5.63
2022-12-13T17:02:16.609Z,-5.61
2022-12-13T17:04:43.141Z,-5.55
2022-12-13T17:07:09.508Z,-5.57
2022-12-13T17:09:36.022Z,-5.50
2022-12-13T17:12:02.693Z,-5.44
2022-12-13T17:14:29.127Z,-5.41
2022-12-13T17:16:55.738Z,-5.40
2022-12-13T17:19:22.339Z,-5.41
2022-12-13T17:21:48.747Z,-5.38
2022-12-13T17:24:15.511Z,-5.26
2022-12-13T17:26:47.345Z,-5.21
2022-12-13T17:29:21.390Z,-5.16
2022-12-13T17:31:47.923Z,-5.16
2022-12-13T17:34:14.413Z,-5.16
2022-12-13T17:36:40.814Z,-5.13
2022-12-13T17:39:07.264Z,-5.05
2022-12-13T17:41:33.660Z,-5.05
2022-12-13T17:44:00.889Z,-5.04
2022-12-13T17:46:27.341Z,-5.04
2022-12-13T17:48:53.740Z,-5.07
2022-12-13T17:51:20.242Z,-5.04
2022-12-13T17:53:46.658Z,-5.01
2022-12-13T17:56:15.743Z,-4.94
2022-12-13T17:58:42.398Z,-4.86
2022-12-13T18:01:12.551Z,-4.87
2022-12-13T18:03:39.075Z,-4.87
2022-12-13T18:06:07.121Z,-4.85
2022-12-13T18:08:34.933Z,-4.81
2022-12-13T18:13:47.843Z,-4.73
2022-12-13T18:16:21.118Z,-4.70
2022-12-13T18:18:54.937Z,-4.63
2022-12-13T18:21:22.674Z,-4.59
2022-12-13T18:23:55.104Z,-4.62
2022-12-13T18:26:22.025Z,-4.66
2022-12-13T18:28:48.507Z,-4.66
2022-12-13T18:31:16.447Z,-4.65
2022-12-13T18:33:47.286Z,-4.66
2022-12-13T18:36:14.152Z,-4.68
2022-12-13T18:38:42.256Z,-4.71
2022-12-13T18:41:19.453Z,-4.75
2022-12-13T18:43:46.002Z,-4.70
2022-12-13T18:46:13.423Z,-4.63
2022-12-13T18:48:40.557Z,-4.62
2022-12-13T18:51:09.718Z,-4.65
2022-12-13T18:53:37.317Z,-4.57
2022-12-13T18:56:05.321Z,-4.50
2022-12-13T18:58:32.202Z,-4.55
2022-12-13T19:00:58.684Z,-4.59
2022-12-13T19:03:26.257Z,-4.66
2022-12-13T19:05:53.108Z,-4.72
2022-12-13T19:08:19.849Z,-4.74
2022-12-13T19:10:47.678Z,-4.79
2022-12-13T19:13:14.052Z,-4.75
2022-12-13T19:15:40.868Z,-4.78
2022-12-13T19:18:07.361Z,-4.73
2022-12-13T19:20:33.796Z,-4.69
2022-12-13T19:23:00.240Z,-4.61
2022-12-13T19:25:26.774Z,-4.56
2022-12-13T19:27:56.701Z,-4.59
2022-12-13T19:30:23.875Z,-4.60
2022-12-13T19:32:50.371Z,-4.58
2022-12-13T19:35:16.877Z,-4.54
2022-12-13T19:37:43.298Z,-4.49
2022-12-13T19:40:10.313Z,-4.40
2022-12-13T19:42:36.722Z,-4.32
2022-12-13T19:45:03.175Z,-4.32
2022-12-13T19:47:29.582Z,-4.36
2022-12-13T19:49:56.008Z,-4.45
2022-12-13T19:52:22.466Z,-4.49
2022-12-13T19:54:49.087Z,-4.42
2022-12-13T19:57:15.494Z,-4.33
2022-12-13T19:59:41.852Z,-4.26
2022-12-13T20:02:09.538Z,-4.20
2022-12-13T20:04:36.021Z,-4.16
2022-12-13T20:07:02.440Z,-4.14
2022-12-13T20:09:29.784Z,-4.15
2022-12-13T20:11:56.170Z,-4.15
2022-12-13T20:14:22.589Z,-4.13
2022-12-13T20:16:49.071Z,-4.11
2022-12-13T20:19:15.521Z,-4.12
2022-12-13T20:21:41.893Z,-4.10
2022-12-13T20:24:08.421Z,-4.09
2022-12-13T20:26:35.079Z,-4.04
2022-12-13T20:29:01.516Z,-4.06
2022-12-13T20:31:31.743Z,-4.19
2022-12-13T20:33:59.567Z,-4.19
2022-12-13T20:36:27.740Z,-4.15
2022-12-13T20:39:01.273Z,-4.09
2022-12-13T20:41:29.226Z,-4.11
2022-12-13T20:43:56.992Z,-4.14
2022-12-13T20:46:23.842Z,-4.10
2022-12-13T20:48:50.820Z,-4.09
2022-12-13T20:51:18.895Z,-4.08
2022-12-13T20:53:46.253Z,-4.03
2022-12-13T20:56:14.287Z,-4.02
2022-12-13T20:58:44.118Z,-3.99
2022-12-13T21:01:15.493Z,-3.95
2022-12-13T21:03:41.912Z,-3.99
2022-12-13T21:06:08.385Z,-3.99
2022-12-13T21:08:53.980Z,-4.02
2022-12-13T21:11:31.072Z,-4.09
2022-12-13T21:14:00.974Z,-4.05
2022-12-13T21:16:32.046Z,-4.03
2022-12-13T21:18:59.595Z,-4.00
2022-12-13T21:21:27.125Z,-3.98
2022-12-13T21:23:53.860Z,-3.95
2022-12-13T21:26:22.946Z,-3.93
2022-12-13T21:28:57.380Z,-3.96
2022-12-13T21:31:24.398Z,-4.09
2022-12-13T21:33:52.193Z,-4.12
2022-12-13T21:36:21.035Z,-4.18
2022-12-13T21:38:47.428Z,-4.18
2022-12-13T21:41:13.983Z,-4.15
2022-12-13T21:43:40.468Z,-4.17
2022-12-13T21:46:08.258Z,-4.19
2022-12-13T21:48:35.222Z,-4.26
2022-12-13T21:51:01.874Z,-4.28
2022-12-13T21:53:28.540Z,-4.22
2022-12-13T21:56:15.188Z,-4.15
2022-12-13T21:59:00.317Z,-4.14
2022-12-13T22:01:27.785Z,-4.16
2022-12-13T22:03:54.219Z,-4.19
2022-12-13T22:06:20.585Z,-4.23
2022-12-13T22:08:47.015Z,-4.15
2022-12-13T22:11:21.114Z,-4.18
2022-12-13T22:13:48.567Z,-4.20
2022-12-13T22:16:15.554Z,-4.20
2022-12-13T22:18:42.196Z,-4.14
2022-12-13T22:21:08.633Z,-4.11
2022-12-13T22:23:34.997Z,-4.16
2022-12-13T22:26:05.321Z,-4.17
2022-12-13T22:28:31.713Z,-4.17
2022-12-13T22:30:58.109Z,-4.14
2022-12-13T22:33:24.514Z,-4.06
2022-12-13T22:35:51.578Z,-4.00
2022-12-13T22:38:18.331Z,-3.96
2022-12-13T22:40:44.714Z,-3.88
2022-12-13T22:43:13.775Z,-3.87
2022-12-13T22:45:42.708Z,-3.83
2022-12-13T22:48:09.136Z,-3.86
2022-12-13T22:50:35.548Z,-3.84
2022-12-13T22:53:02.001Z,-3.82
2022-12-13T22:55:28.810Z,-3.80
2022-12-13T22:57:55.174Z,-3.77
2022-12-13T23:00:21.863Z,-3.77
2022-12-13T23:02:48.528Z,-3.76
2022-12-13T23:05:15.001Z,-3.76
2022-12-13T23:07:41.398Z,-3.77
2022-12-13T23:10:33.297Z,-3.84
2022-12-13T23:13:02.743Z,-3.93
2022-12-13T23:15:36.372Z,-3.89
2022-12-13T23:18:02.758Z,-3.82
2022-12-13T23:20:29.225Z,-3.77
2022-12-13T23:22:55.641Z,-3.79
2022-12-13T23:25:22.025Z,-3.78
2022-12-13T23:27:48.444Z,-3.79
2022-12-13T23:30:14.901Z,-3.80
2022-12-13T23:32:41.540Z,-3.83
2022-12-13T23:35:10.209Z,-3.80
2022-12-13T23:37:37.156Z,-3.76
2022-12-13T23:40:03.812Z,-3.75
2022-12-13T23:42:30.580Z,-3.72
2022-12-13T23:44:56.962Z,-3.71
2022-12-13T23:47:23.363Z,-3.72
2022-12-13T23:49:49.732Z,-3.75
2022-12-13T23:52:16.164Z,-3.75
2022-12-13T23:54:42.605Z,-3.84
2022-12-13T23:57:08.983Z,-3.83
2022-12-13T23:59:35.945Z,-3.85
